sensor_id;sensor_type;location;lat;lon;timestamp;P1;durP1;ratioP1;P2;durP2;ratioP2
15968;SDS011;8085;53.472;9.794;2023-12-22T00:02:24;17.73;;;2.22;;
15968;SDS011;8085;53.472;9.794;2023-12-22T00:04:53;24.33;;;3.03;;
15968;SDS011;8085;53.472;9.794;2023-12-22T00:07:22;18.55;;;2.63;;
15968;SDS011;8085;53.472;9.794;2023-12-22T00:09:48;15.40;;;2.25;;
15968;SDS011;8085;53.472;9.794;2023-12-22T00:12:15;19.58;;;2.22;;
15968;SDS011;8085;53.472;9.794;2023-12-22T00:14:43;13.77;;;2.05;;
15968;SDS011;8085;53.472;9.794;2023-12-22T00:17:11;15.60;;;2.50;;
15968;SDS011;8085;53.472;9.794;2023-12-22T00:19:38;15.02;;;1.60;;
15968;SDS011;8085;53.472;9.794;2023-12-22T00:22:05;18.58;;;2.35;;
15968;SDS011;8085;53.472;9.794;2023-12-22T00:24:33;14.00;;;1.95;;
15968;SDS011;8085;53.472;9.794;2023-12-22T00:27:00;16.98;;;2.20;;
15968;SDS011;8085;53.472;9.794;2023-12-22T00:29:28;18.98;;;2.40;;
15968;SDS011;8085;53.472;9.794;2023-12-22T00:31:55;14.25;;;1.70;;
15968;SDS011;8085;53.472;9.794;2023-12-22T00:34:21;18.60;;;1.85;;
15968;SDS011;8085;53.472;9.794;2023-12-22T00:36:48;9.73;;;2.15;;
15968;SDS011;8085;53.472;9.794;2023-12-22T00:39:15;16.67;;;2.65;;
15968;SDS011;8085;53.472;9.794;2023-12-22T00:41:43;14.80;;;1.90;;
15968;SDS011;8085;53.472;9.794;2023-12-22T00:44:10;16.80;;;1.95;;
15968;SDS011;8085;53.472;9.794;2023-12-22T00:46:37;14.95;;;1.95;;
15968;SDS011;8085;53.472;9.794;2023-12-22T00:49:04;7.82;;;1.38;;
15968;SDS011;8085;53.472;9.794;2023-12-22T00:51:31;16.00;;;1.77;;
15968;SDS011;8085;53.472;9.794;2023-12-22T00:53:58;4.90;;;1.42;;
15968;SDS011;8085;53.472;9.794;2023-12-22T00:56:24;8.63;;;1.33;;
15968;SDS011;8085;53.472;9.794;2023-12-22T00:58:53;10.65;;;1.98;;
15968;SDS011;8085;53.472;9.794;2023-12-22T01:01:19;5.35;;;0.80;;
15968;SDS011;8085;53.472;9.794;2023-12-22T01:03:47;7.82;;;1.05;;
15968;SDS011;8085;53.472;9.794;2023-12-22T01:06:14;6.50;;;0.73;;
15968;SDS011;8085;53.472;9.794;2023-12-22T01:08:40;6.00;;;0.70;;
15968;SDS011;8085;53.472;9.794;2023-12-22T01:11:12;4.68;;;0.50;;
15968;SDS011;8085;53.472;9.794;2023-12-22T01:13:44;6.43;;;0.80;;
15968;SDS011;8085;53.472;9.794;2023-12-22T01:16:12;9.10;;;1.33;;
15968;SDS011;8085;53.472;9.794;2023-12-22T01:18:40;3.47;;;0.73;;
15968;SDS011;8085;53.472;9.794;2023-12-22T01:21:08;9.02;;;1.38;;
15968;SDS011;8085;53.472;9.794;2023-12-22T01:23:35;6.65;;;1.13;;
15968;SDS011;8085;53.472;9.794;2023-12-22T01:26:02;6.15;;;1.10;;
15968;SDS011;8085;53.472;9.794;2023-12-22T01:28:29;9.65;;;1.35;;
15968;SDS011;8085;53.472;9.794;2023-12-22T01:30:56;12.60;;;1.55;;
15968;SDS011;8085;53.472;9.794;2023-12-22T01:33:24;9.00;;;1.00;;
15968;SDS011;8085;53.472;9.794;2023-12-22T01:35:51;11.30;;;1.23;;
15968;SDS011;8085;53.472;9.794;2023-12-22T01:38:18;4.88;;;1.00;;
15968;SDS011;8085;53.472;9.794;2023-12-22T01:40:45;7.13;;;1.15;;
15968;SDS011;8085;53.472;9.794;2023-12-22T01:43:12;10.00;;;1.00;;
15968;SDS011;8085;53.472;9.794;2023-12-22T01:45:39;7.43;;;1.23;;
15968;SDS011;8085;53.472;9.794;2023-12-22T01:48:08;9.18;;;1.23;;
15968;SDS011;8085;53.472;9.794;2023-12-22T01:50:37;12.02;;;1.17;;
15968;SDS011;8085;53.472;9.794;2023-12-22T01:53:04;11.73;;;1.50;;
15968;SDS011;8085;53.472;9.794;2023-12-22T01:55:31;8.32;;;0.77;;
15968;SDS011;8085;53.472;9.794;2023-12-22T01:57:58;9.93;;;1.35;;
15968;SDS011;8085;53.472;9.794;2023-12-22T02:00:26;7.07;;;1.00;;
15968;SDS011;8085;53.472;9.794;2023-12-22T02:02:53;4.13;;;0.60;;
15968;SDS011;8085;53.472;9.794;2023-12-22T02:05:20;6.68;;;1.08;;
15968;SDS011;8085;53.472;9.794;2023-12-22T02:07:48;11.00;;;0.98;;
15968;SDS011;8085;53.472;9.794;2023-12-22T02:10:15;9.23;;;0.73;;
15968;SDS011;8085;53.472;9.794;2023-12-22T02:12:42;11.77;;;0.82;;
15968;SDS011;8085;53.472;9.794;2023-12-22T02:15:09;7.30;;;0.77;;
15968;SDS011;8085;53.472;9.794;2023-12-22T02:17:38;5.60;;;0.70;;
15968;SDS011;8085;53.472;9.794;2023-12-22T02:20:10;8.77;;;0.95;;
15968;SDS011;8085;53.472;9.794;2023-12-22T02:22:39;7.60;;;1.13;;
15968;SDS011;8085;53.472;9.794;2023-12-22T02:25:06;7.00;;;0.88;;
15968;SDS011;8085;53.472;9.794;2023-12-22T02:27:34;8.20;;;0.95;;
15968;SDS011;8085;53.472;9.794;2023-12-22T02:30:06;8.80;;;0.80;;
15968;SDS011;8085;53.472;9.794;2023-12-22T02:32:36;10.85;;;1.25;;
15968;SDS011;8085;53.472;9.794;2023-12-22T02:35:08;6.50;;;0.77;;
15968;SDS011;8085;53.472;9.794;2023-12-22T02:37:36;10.20;;;0.75;;
15968;SDS011;8085;53.472;9.794;2023-12-22T02:40:06;10.55;;;1.50;;
15968;SDS011;8085;53.472;9.794;2023-12-22T02:42:35;9.27;;;0.80;;
15968;SDS011;8085;53.472;9.794;2023-12-22T02:45:04;8.75;;;0.90;;
15968;SDS011;8085;53.472;9.794;2023-12-22T02:47:32;9.90;;;0.73;;
15968;SDS011;8085;53.472;9.794;2023-12-22T02:49:59;13.15;;;1.25;;
15968;SDS011;8085;53.472;9.794;2023-12-22T02:52:26;2.95;;;0.57;;
15968;SDS011;8085;53.472;9.794;2023-12-22T02:54:54;7.03;;;1.20;;
15968;SDS011;8085;53.472;9.794;2023-12-22T02:57:21;7.60;;;0.90;;
15968;SDS011;8085;53.472;9.794;2023-12-22T02:59:48;11.13;;;1.15;;
15968;SDS011;8085;53.472;9.794;2023-12-22T03:02:15;8.85;;;1.30;;
15968;SDS011;8085;53.472;9.794;2023-12-22T03:04:42;11.25;;;1.17;;
15968;SDS011;8085;53.472;9.794;2023-12-22T03:07:11;14.85;;;1.48;;
15968;SDS011;8085;53.472;9.794;2023-12-22T03:09:38;5.40;;;0.95;;
15968;SDS011;8085;53.472;9.794;2023-12-22T03:12:07;10.55;;;1.05;;
15968;SDS011;8085;53.472;9.794;2023-12-22T03:14:34;7.72;;;0.73;;
15968;SDS011;8085;53.472;9.794;2023-12-22T03:17:02;7.18;;;0.90;;
15968;SDS011;8085;53.472;9.794;2023-12-22T03:19:29;2.72;;;0.50;;
15968;SDS011;8085;53.472;9.794;2023-12-22T03:21:56;4.78;;;0.80;;
15968;SDS011;8085;53.472;9.794;2023-12-22T03:24:23;5.03;;;0.63;;
15968;SDS011;8085;53.472;9.794;2023-12-22T03:26:50;2.28;;;0.20;;
15968;SDS011;8085;53.472;9.794;2023-12-22T03:29:19;1.15;;;0.30;;
15968;SDS011;8085;53.472;9.794;2023-12-22T03:31:46;1.25;;;0.17;;
15968;SDS011;8085;53.472;9.794;2023-12-22T03:34:13;2.17;;;0.55;;
15968;SDS011;8085;53.472;9.794;2023-12-22T03:36:40;1.25;;;0.22;;
15968;SDS011;8085;53.472;9.794;2023-12-22T03:39:07;3.10;;;0.25;;
15968;SDS011;8085;53.472;9.794;2023-12-22T03:41:34;3.88;;;0.43;;
15968;SDS011;8085;53.472;9.794;2023-12-22T03:44:01;8.30;;;0.63;;
15968;SDS011;8085;53.472;9.794;2023-12-22T03:46:29;3.95;;;0.60;;
15968;SDS011;8085;53.472;9.794;2023-12-22T03:48:56;1.45;;;0.60;;
15968;SDS011;8085;53.472;9.794;2023-12-22T03:51:23;3.85;;;0.47;;
15968;SDS011;8085;53.472;9.794;2023-12-22T03:53:50;5.13;;;0.55;;
15968;SDS011;8085;53.472;9.794;2023-12-22T03:56:16;2.60;;;0.40;;
15968;SDS011;8085;53.472;9.794;2023-12-22T03:58:44;5.53;;;0.75;;
15968;SDS011;8085;53.472;9.794;2023-12-22T04:01:13;4.20;;;0.90;;
15968;SDS011;8085;53.472;9.794;2023-12-22T04:03:42;3.85;;;0.63;;
15968;SDS011;8085;53.472;9.794;2023-12-22T04:06:09;2.42;;;0.35;;
15968;SDS011;8085;53.472;9.794;2023-12-22T04:08:35;7.85;;;1.15;;
15968;SDS011;8085;53.472;9.794;2023-12-22T04:11:03;8.68;;;1.00;;
15968;SDS011;8085;53.472;9.794;2023-12-22T04:13:29;7.70;;;0.75;;
15968;SDS011;8085;53.472;9.794;2023-12-22T04:15:57;8.27;;;0.75;;
15968;SDS011;8085;53.472;9.794;2023-12-22T04:18:24;8.60;;;0.70;;
15968;SDS011;8085;53.472;9.794;2023-12-22T04:20:52;7.32;;;1.15;;
15968;SDS011;8085;53.472;9.794;2023-12-22T04:23:20;7.75;;;0.80;;
15968;SDS011;8085;53.472;9.794;2023-12-22T04:25:47;4.65;;;0.60;;
15968;SDS011;8085;53.472;9.794;2023-12-22T04:28:14;7.75;;;0.70;;
15968;SDS011;8085;53.472;9.794;2023-12-22T04:30:41;5.78;;;1.02;;
15968;SDS011;8085;53.472;9.794;2023-12-22T04:33:08;4.35;;;0.63;;
15968;SDS011;8085;53.472;9.794;2023-12-22T04:35:35;1.92;;;0.57;;
15968;SDS011;8085;53.472;9.794;2023-12-22T04:38:02;4.38;;;0.75;;
15968;SDS011;8085;53.472;9.794;2023-12-22T04:40:29;5.75;;;0.60;;
15968;SDS011;8085;53.472;9.794;2023-12-22T04:42:56;8.27;;;1.02;;
15968;SDS011;8085;53.472;9.794;2023-12-22T04:45:23;10.05;;;1.08;;
15968;SDS011;8085;53.472;9.794;2023-12-22T04:47:50;7.03;;;1.02;;
15968;SDS011;8085;53.472;9.794;2023-12-22T04:50:17;7.13;;;0.80;;
15968;SDS011;8085;53.472;9.794;2023-12-22T04:52:43;6.78;;;1.00;;
15968;SDS011;8085;53.472;9.794;2023-12-22T04:55:12;6.65;;;1.25;;
15968;SDS011;8085;53.472;9.794;2023-12-22T04:57:40;10.65;;;1.05;;
15968;SDS011;8085;53.472;9.794;2023-12-22T05:00:07;7.22;;;0.82;;
15968;SDS011;8085;53.472;9.794;2023-12-22T05:02:35;8.68;;;1.13;;
15968;SDS011;8085;53.472;9.794;2023-12-22T05:05:01;11.05;;;1.42;;
15968;SDS011;8085;53.472;9.794;2023-12-22T05:07:28;9.98;;;1.30;;
15968;SDS011;8085;53.472;9.794;2023-12-22T05:09:55;10.98;;;1.50;;
15968;SDS011;8085;53.472;9.794;2023-12-22T05:12:23;8.95;;;1.08;;
15968;SDS011;8085;53.472;9.794;2023-12-22T05:14:49;7.50;;;0.80;;
15968;SDS011;8085;53.472;9.794;2023-12-22T05:17:16;4.38;;;0.82;;
15968;SDS011;8085;53.472;9.794;2023-12-22T05:19:43;8.95;;;1.05;;
15968;SDS011;8085;53.472;9.794;2023-12-22T05:22:10;6.63;;;0.60;;
15968;SDS011;8085;53.472;9.794;2023-12-22T05:24:37;6.82;;;0.75;;
15968;SDS011;8085;53.472;9.794;2023-12-22T05:27:04;8.80;;;1.15;;
15968;SDS011;8085;53.472;9.794;2023-12-22T05:29:32;2.13;;;0.30;;
15968;SDS011;8085;53.472;9.794;2023-12-22T05:31:59;5.55;;;0.70;;
15968;SDS011;8085;53.472;9.794;2023-12-22T05:34:26;2.97;;;0.38;;
15968;SDS011;8085;53.472;9.794;2023-12-22T05:36:53;6.45;;;0.60;;
15968;SDS011;8085;53.472;9.794;2023-12-22T05:39:20;3.65;;;0.57;;
15968;SDS011;8085;53.472;9.794;2023-12-22T05:41:47;4.55;;;0.50;;
15968;SDS011;8085;53.472;9.794;2023-12-22T05:44:14;9.70;;;0.80;;
15968;SDS011;8085;53.472;9.794;2023-12-22T05:46:42;5.38;;;1.05;;
15968;SDS011;8085;53.472;9.794;2023-12-22T05:49:09;5.00;;;0.70;;
15968;SDS011;8085;53.472;9.794;2023-12-22T05:51:36;11.93;;;0.68;;
15968;SDS011;8085;53.472;9.794;2023-12-22T05:54:04;5.85;;;0.88;;
15968;SDS011;8085;53.472;9.794;2023-12-22T05:56:31;6.68;;;0.77;;
15968;SDS011;8085;53.472;9.794;2023-12-22T05:58:58;5.78;;;0.90;;
15968;SDS011;8085;53.472;9.794;2023-12-22T06:01:25;7.72;;;0.80;;
15968;SDS011;8085;53.472;9.794;2023-12-22T06:03:54;4.93;;;0.35;;
15968;SDS011;8085;53.472;9.794;2023-12-22T06:06:21;4.95;;;0.70;;
15968;SDS011;8085;53.472;9.794;2023-12-22T06:08:48;7.03;;;0.95;;
15968;SDS011;8085;53.472;9.794;2023-12-22T06:11:15;8.43;;;0.93;;
15968;SDS011;8085;53.472;9.794;2023-12-22T06:13:42;7.72;;;0.65;;
15968;SDS011;8085;53.472;9.794;2023-12-22T06:16:11;5.30;;;0.80;;
15968;SDS011;8085;53.472;9.794;2023-12-22T06:18:39;8.75;;;1.02;;
15968;SDS011;8085;53.472;9.794;2023-12-22T06:21:07;9.73;;;1.23;;
15968;SDS011;8085;53.472;9.794;2023-12-22T06:23:35;6.22;;;0.88;;
15968;SDS011;8085;53.472;9.794;2023-12-22T06:26:07;9.27;;;1.02;;
15968;SDS011;8085;53.472;9.794;2023-12-22T06:28:35;6.93;;;0.90;;
15968;SDS011;8085;53.472;9.794;2023-12-22T06:31:03;10.23;;;1.40;;
15968;SDS011;8085;53.472;9.794;2023-12-22T06:33:30;5.85;;;1.02;;
15968;SDS011;8085;53.472;9.794;2023-12-22T06:35:57;9.20;;;0.90;;
15968;SDS011;8085;53.472;9.794;2023-12-22T06:38:25;9.45;;;1.42;;
15968;SDS011;8085;53.472;9.794;2023-12-22T06:40:52;5.20;;;1.00;;
15968;SDS011;8085;53.472;9.794;2023-12-22T06:43:20;14.38;;;1.10;;
15968;SDS011;8085;53.472;9.794;2023-12-22T06:45:47;14.43;;;1.02;;
15968;SDS011;8085;53.472;9.794;2023-12-22T06:48:14;9.13;;;1.13;;
15968;SDS011;8085;53.472;9.794;2023-12-22T06:50:41;9.32;;;0.95;;
15968;SDS011;8085;53.472;9.794;2023-12-22T06:53:09;13.85;;;1.52;;
15968;SDS011;8085;53.472;9.794;2023-12-22T06:55:38;9.63;;;1.48;;
15968;SDS011;8085;53.472;9.794;2023-12-22T06:58:04;9.10;;;0.98;;
15968;SDS011;8085;53.472;9.794;2023-12-22T07:00:31;10.45;;;1.27;;
15968;SDS011;8085;53.472;9.794;2023-12-22T07:02:58;17.48;;;1.48;;
15968;SDS011;8085;53.472;9.794;2023-12-22T07:05:34;13.55;;;1.30;;
15968;SDS011;8085;53.472;9.794;2023-12-22T07:08:05;9.02;;;1.23;;
15968;SDS011;8085;53.472;9.794;2023-12-22T07:10:33;7.70;;;1.15;;
15968;SDS011;8085;53.472;9.794;2023-12-22T07:13:01;11.35;;;1.30;;
15968;SDS011;8085;53.472;9.794;2023-12-22T07:15:28;17.00;;;1.80;;
15968;SDS011;8085;53.472;9.794;2023-12-22T07:17:55;5.88;;;0.95;;
15968;SDS011;8085;53.472;9.794;2023-12-22T07:20:21;13.43;;;1.27;;
15968;SDS011;8085;53.472;9.794;2023-12-22T07:22:48;12.45;;;1.48;;
15968;SDS011;8085;53.472;9.794;2023-12-22T07:25:16;11.93;;;1.45;;
15968;SDS011;8085;53.472;9.794;2023-12-22T07:27:44;17.20;;;1.95;;
15968;SDS011;8085;53.472;9.794;2023-12-22T07:30:13;12.52;;;1.60;;
15968;SDS011;8085;53.472;9.794;2023-12-22T07:32:43;16.13;;;1.25;;
15968;SDS011;8085;53.472;9.794;2023-12-22T07:35:12;10.95;;;1.30;;
15968;SDS011;8085;53.472;9.794;2023-12-22T07:37:39;22.23;;;2.05;;
15968;SDS011;8085;53.472;9.794;2023-12-22T07:40:07;9.05;;;1.20;;
15968;SDS011;8085;53.472;9.794;2023-12-22T07:42:35;12.00;;;1.80;;
15968;SDS011;8085;53.472;9.794;2023-12-22T07:45:02;9.65;;;1.80;;
15968;SDS011;8085;53.472;9.794;2023-12-22T07:47:32;12.82;;;1.33;;
15968;SDS011;8085;53.472;9.794;2023-12-22T07:49:59;14.10;;;1.42;;
15968;SDS011;8085;53.472;9.794;2023-12-22T07:52:27;11.88;;;1.50;;
15968;SDS011;8085;53.472;9.794;2023-12-22T07:54:53;19.73;;;2.03;;
15968;SDS011;8085;53.472;9.794;2023-12-22T07:57:20;7.40;;;1.45;;
15968;SDS011;8085;53.472;9.794;2023-12-22T07:59:47;14.07;;;1.88;;
15968;SDS011;8085;53.472;9.794;2023-12-22T08:02:14;13.23;;;1.73;;
15968;SDS011;8085;53.472;9.794;2023-12-22T08:04:42;10.32;;;1.70;;
15968;SDS011;8085;53.472;9.794;2023-12-22T08:07:09;10.15;;;1.48;;
15968;SDS011;8085;53.472;9.794;2023-12-22T08:09:36;7.90;;;1.30;;
15968;SDS011;8085;53.472;9.794;2023-12-22T08:12:03;7.95;;;0.90;;
15968;SDS011;8085;53.472;9.794;2023-12-22T08:14:30;9.30;;;1.15;;
15968;SDS011;8085;53.472;9.794;2023-12-22T08:16:57;4.95;;;0.65;;
15968;SDS011;8085;53.472;9.794;2023-12-22T08:19:24;5.65;;;1.27;;
15968;SDS011;8085;53.472;9.794;2023-12-22T08:21:53;10.38;;;1.00;;
15968;SDS011;8085;53.472;9.794;2023-12-22T08:24:20;7.13;;;0.88;;
15968;SDS011;8085;53.472;9.794;2023-12-22T08:26:47;4.22;;;0.60;;
15968;SDS011;8085;53.472;9.794;2023-12-22T08:29:14;10.43;;;1.40;;
15968;SDS011;8085;53.472;9.794;2023-12-22T08:31:42;10.10;;;1.10;;
15968;SDS011;8085;53.472;9.794;2023-12-22T08:34:09;10.25;;;1.45;;
15968;SDS011;8085;53.472;9.794;2023-12-22T08:36:36;4.30;;;0.80;;
15968;SDS011;8085;53.472;9.794;2023-12-22T08:39:04;11.38;;;1.35;;
15968;SDS011;8085;53.472;9.794;2023-12-22T08:41:32;8.60;;;1.20;;
15968;SDS011;8085;53.472;9.794;2023-12-22T08:44:01;11.07;;;1.77;;
15968;SDS011;8085;53.472;9.794;2023-12-22T08:46:28;12.10;;;1.88;;
15968;SDS011;8085;53.472;9.794;2023-12-22T08:48:56;15.93;;;1.33;;
15968;SDS011;8085;53.472;9.794;2023-12-22T08:51:24;13.88;;;1.67;;
15968;SDS011;8085;53.472;9.794;2023-12-22T08:53:51;18.52;;;1.92;;
15968;SDS011;8085;53.472;9.794;2023-12-22T08:56:21;13.65;;;1.40;;
15968;SDS011;8085;53.472;9.794;2023-12-22T08:58:48;13.05;;;1.73;;
15968;SDS011;8085;53.472;9.794;2023-12-22T09:01:18;9.00;;;1.30;;
15968;SDS011;8085;53.472;9.794;2023-12-22T09:03:45;6.50;;;1.20;;
15968;SDS011;8085;53.472;9.794;2023-12-22T09:06:13;7.60;;;1.25;;
15968;SDS011;8085;53.472;9.794;2023-12-22T09:08:40;8.25;;;1.00;;
15968;SDS011;8085;53.472;9.794;2023-12-22T09:11:07;10.60;;;1.55;;
15968;SDS011;8085;53.472;9.794;2023-12-22T09:13:36;6.95;;;1.20;;
15968;SDS011;8085;53.472;9.794;2023-12-22T09:16:03;10.23;;;1.17;;
15968;SDS011;8085;53.472;9.794;2023-12-22T09:18:31;9.43;;;1.20;;
15968;SDS011;8085;53.472;9.794;2023-12-22T09:20:58;7.22;;;0.93;;
15968;SDS011;8085;53.472;9.794;2023-12-22T09:23:24;8.73;;;1.00;;
15968;SDS011;8085;53.472;9.794;2023-12-22T09:25:51;7.03;;;0.93;;
15968;SDS011;8085;53.472;9.794;2023-12-22T09:28:18;5.25;;;1.00;;
15968;SDS011;8085;53.472;9.794;2023-12-22T09:30:47;11.35;;;1.30;;
15968;SDS011;8085;53.472;9.794;2023-12-22T09:33:14;6.75;;;0.98;;
15968;SDS011;8085;53.472;9.794;2023-12-22T09:35:41;10.52;;;1.15;;
15968;SDS011;8085;53.472;9.794;2023-12-22T09:38:08;6.00;;;1.02;;
15968;SDS011;8085;53.472;9.794;2023-12-22T09:40:37;12.32;;;1.40;;
15968;SDS011;8085;53.472;9.794;2023-12-22T09:43:05;11.73;;;1.17;;
15968;SDS011;8085;53.472;9.794;2023-12-22T09:45:33;8.63;;;0.90;;
15968;SDS011;8085;53.472;9.794;2023-12-22T09:48:01;9.52;;;1.30;;
15968;SDS011;8085;53.472;9.794;2023-12-22T09:50:31;10.70;;;1.23;;
15968;SDS011;8085;53.472;9.794;2023-12-22T09:53:00;11.75;;;1.40;;
15968;SDS011;8085;53.472;9.794;2023-12-22T09:55:28;15.18;;;0.85;;
15968;SDS011;8085;53.472;9.794;2023-12-22T09:57:57;12.85;;;1.33;;
15968;SDS011;8085;53.472;9.794;2023-12-22T10:00:25;14.13;;;1.70;;
15968;SDS011;8085;53.472;9.794;2023-12-22T10:02:55;6.93;;;1.00;;
15968;SDS011;8085;53.472;9.794;2023-12-22T10:05:23;6.25;;;0.90;;
15968;SDS011;8085;53.472;9.794;2023-12-22T10:07:50;10.18;;;1.75;;
15968;SDS011;8085;53.472;9.794;2023-12-22T10:10:17;9.18;;;1.50;;
15968;SDS011;8085;53.472;9.794;2023-12-22T10:12:46;13.77;;;1.60;;
15968;SDS011;8085;53.472;9.794;2023-12-22T10:15:13;13.73;;;1.40;;
15968;SDS011;8085;53.472;9.794;2023-12-22T10:17:43;12.50;;;1.50;;
15968;SDS011;8085;53.472;9.794;2023-12-22T10:20:10;12.90;;;1.23;;
15968;SDS011;8085;53.472;9.794;2023-12-22T10:22:39;10.02;;;1.58;;
15968;SDS011;8085;53.472;9.794;2023-12-22T10:25:08;10.95;;;1.25;;
15968;SDS011;8085;53.472;9.794;2023-12-22T10:27:35;17.83;;;1.83;;
15968;SDS011;8085;53.472;9.794;2023-12-22T10:30:02;10.38;;;1.45;;
15968;SDS011;8085;53.472;9.794;2023-12-22T10:32:30;10.68;;;1.30;;
15968;SDS011;8085;53.472;9.794;2023-12-22T10:34:56;11.25;;;1.10;;
15968;SDS011;8085;53.472;9.794;2023-12-22T10:37:23;7.00;;;0.80;;
15968;SDS011;8085;53.472;9.794;2023-12-22T10:39:53;8.15;;;0.98;;
15968;SDS011;8085;53.472;9.794;2023-12-22T10:42:21;4.80;;;0.70;;
15968;SDS011;8085;53.472;9.794;2023-12-22T10:44:48;4.75;;;0.50;;
15968;SDS011;8085;53.472;9.794;2023-12-22T10:47:16;4.85;;;0.73;;
15968;SDS011;8085;53.472;9.794;2023-12-22T10:49:45;5.75;;;0.63;;
15968;SDS011;8085;53.472;9.794;2023-12-22T10:52:15;5.88;;;0.73;;
15968;SDS011;8085;53.472;9.794;2023-12-22T10:54:43;3.35;;;0.47;;
15968;SDS011;8085;53.472;9.794;2023-12-22T10:57:23;3.33;;;0.40;;
15968;SDS011;8085;53.472;9.794;2023-12-22T10:59:52;5.78;;;0.70;;
15968;SDS011;8085;53.472;9.794;2023-12-22T11:02:22;3.08;;;0.50;;
15968;SDS011;8085;53.472;9.794;2023-12-22T11:04:57;5.50;;;0.55;;
15968;SDS011;8085;53.472;9.794;2023-12-22T11:07:28;1.27;;;0.30;;
15968;SDS011;8085;53.472;9.794;2023-12-22T11:09:56;4.68;;;0.47;;
15968;SDS011;8085;53.472;9.794;2023-12-22T11:12:29;2.03;;;0.40;;
15968;SDS011;8085;53.472;9.794;2023-12-22T11:14:57;3.42;;;0.63;;
15968;SDS011;8085;53.472;9.794;2023-12-22T11:17:25;6.82;;;0.85;;
15968;SDS011;8085;53.472;9.794;2023-12-22T11:19:54;5.47;;;0.63;;
15968;SDS011;8085;53.472;9.794;2023-12-22T11:22:22;5.60;;;0.90;;
15968;SDS011;8085;53.472;9.794;2023-12-22T11:24:54;3.60;;;0.63;;
15968;SDS011;8085;53.472;9.794;2023-12-22T11:27:26;6.60;;;0.73;;
15968;SDS011;8085;53.472;9.794;2023-12-22T11:30:10;8.13;;;1.20;;
15968;SDS011;8085;53.472;9.794;2023-12-22T11:32:49;9.23;;;1.20;;
15968;SDS011;8085;53.472;9.794;2023-12-22T11:35:21;12.68;;;0.73;;
15968;SDS011;8085;53.472;9.794;2023-12-22T11:37:56;7.22;;;0.90;;
15968;SDS011;8085;53.472;9.794;2023-12-22T11:40:39;13.10;;;2.42;;
15968;SDS011;8085;53.472;9.794;2023-12-22T11:43:18;9.55;;;0.75;;
15968;SDS011;8085;53.472;9.794;2023-12-22T11:48:54;14.20;;;1.23;;
15968;SDS011;8085;53.472;9.794;2023-12-22T11:51:35;13.10;;;1.23;;
15968;SDS011;8085;53.472;9.794;2023-12-22T11:54:46;9.38;;;1.42;;
15968;SDS011;8085;53.472;9.794;2023-12-22T11:57:34;7.78;;;1.02;;
15968;SDS011;8085;53.472;9.794;2023-12-22T12:00:07;5.68;;;0.90;;
15968;SDS011;8085;53.472;9.794;2023-12-22T12:03:06;14.07;;;1.05;;
15968;SDS011;8085;53.472;9.794;2023-12-22T12:05:33;7.35;;;1.15;;
15968;SDS011;8085;53.472;9.794;2023-12-22T12:08:06;8.95;;;1.20;;
15968;SDS011;8085;53.472;9.794;2023-12-22T12:10:50;7.47;;;1.08;;
15968;SDS011;8085;53.472;9.794;2023-12-22T12:13:21;9.63;;;1.50;;
15968;SDS011;8085;53.472;9.794;2023-12-22T12:15:50;4.00;;;0.82;;
15968;SDS011;8085;53.472;9.794;2023-12-22T12:18:18;8.98;;;1.17;;
15968;SDS011;8085;53.472;9.794;2023-12-22T12:20:48;10.88;;;1.08;;
15968;SDS011;8085;53.472;9.794;2023-12-22T12:23:15;9.23;;;1.00;;
15968;SDS011;8085;53.472;9.794;2023-12-22T12:25:42;6.78;;;1.00;;
15968;SDS011;8085;53.472;9.794;2023-12-22T12:28:09;5.05;;;1.05;;
15968;SDS011;8085;53.472;9.794;2023-12-22T12:30:37;7.40;;;0.65;;
15968;SDS011;8085;53.472;9.794;2023-12-22T12:33:06;5.88;;;0.77;;
15968;SDS011;8085;53.472;9.794;2023-12-22T12:35:36;8.52;;;0.73;;
15968;SDS011;8085;53.472;9.794;2023-12-22T12:38:04;6.43;;;0.63;;
15968;SDS011;8085;53.472;9.794;2023-12-22T12:40:32;7.97;;;0.98;;
15968;SDS011;8085;53.472;9.794;2023-12-22T12:43:00;3.70;;;0.60;;
15968;SDS011;8085;53.472;9.794;2023-12-22T12:45:28;4.22;;;0.82;;
15968;SDS011;8085;53.472;9.794;2023-12-22T12:47:55;6.40;;;0.50;;
15968;SDS011;8085;53.472;9.794;2023-12-22T12:50:23;4.68;;;0.47;;
15968;SDS011;8085;53.472;9.794;2023-12-22T12:52:52;2.17;;;0.70;;
15968;SDS011;8085;53.472;9.794;2023-12-22T12:55:20;6.65;;;0.77;;
15968;SDS011;8085;53.472;9.794;2023-12-22T12:57:47;5.82;;;0.60;;
15968;SDS011;8085;53.472;9.794;2023-12-22T13:00:15;10.30;;;1.83;;
15968;SDS011;8085;53.472;9.794;2023-12-22T13:02:43;5.57;;;0.95;;
15968;SDS011;8085;53.472;9.794;2023-12-22T13:05:19;5.93;;;1.13;;
15968;SDS011;8085;53.472;9.794;2023-12-22T13:07:47;6.18;;;0.75;;
15968;SDS011;8085;53.472;9.794;2023-12-22T13:10:21;9.50;;;1.15;;
15968;SDS011;8085;53.472;9.794;2023-12-22T13:12:49;3.00;;;0.68;;
15968;SDS011;8085;53.472;9.794;2023-12-22T13:15:21;9.20;;;0.80;;
15968;SDS011;8085;53.472;9.794;2023-12-22T13:17:48;11.18;;;1.13;;
15968;SDS011;8085;53.472;9.794;2023-12-22T13:20:15;7.38;;;1.05;;
15968;SDS011;8085;53.472;9.794;2023-12-22T13:22:42;12.82;;;1.38;;
15968;SDS011;8085;53.472;9.794;2023-12-22T13:25:10;9.73;;;0.98;;
15968;SDS011;8085;53.472;9.794;2023-12-22T13:27:45;4.57;;;0.90;;
15968;SDS011;8085;53.472;9.794;2023-12-22T13:30:12;9.10;;;0.80;;
15968;SDS011;8085;53.472;9.794;2023-12-22T13:32:39;5.55;;;0.65;;
15968;SDS011;8085;53.472;9.794;2023-12-22T13:35:07;8.85;;;1.48;;
15968;SDS011;8085;53.472;9.794;2023-12-22T13:37:39;11.07;;;1.10;;
15968;SDS011;8085;53.472;9.794;2023-12-22T13:40:07;5.15;;;1.50;;
15968;SDS011;8085;53.472;9.794;2023-12-22T13:42:35;8.10;;;1.17;;
15968;SDS011;8085;53.472;9.794;2023-12-22T13:45:05;9.82;;;1.02;;
15968;SDS011;8085;53.472;9.794;2023-12-22T13:47:39;8.38;;;0.88;;
15968;SDS011;8085;53.472;9.794;2023-12-22T13:50:12;7.47;;;1.13;;
15968;SDS011;8085;53.472;9.794;2023-12-22T13:52:40;8.07;;;0.65;;
15968;SDS011;8085;53.472;9.794;2023-12-22T13:55:09;5.80;;;0.55;;
15968;SDS011;8085;53.472;9.794;2023-12-22T13:57:37;4.93;;;0.93;;
15968;SDS011;8085;53.472;9.794;2023-12-22T14:02:53;7.90;;;1.35;;
15968;SDS011;8085;53.472;9.794;2023-12-22T14:05:21;6.97;;;1.10;;
15968;SDS011;8085;53.472;9.794;2023-12-22T14:07:48;7.28;;;1.20;;
15968;SDS011;8085;53.472;9.794;2023-12-22T14:10:15;11.52;;;1.23;;
15968;SDS011;8085;53.472;9.794;2023-12-22T14:12:42;10.80;;;1.13;;
15968;SDS011;8085;53.472;9.794;2023-12-22T14:15:09;7.13;;;0.85;;
15968;SDS011;8085;53.472;9.794;2023-12-22T14:17:38;8.25;;;1.17;;
15968;SDS011;8085;53.472;9.794;2023-12-22T14:20:07;9.85;;;1.30;;
15968;SDS011;8085;53.472;9.794;2023-12-22T14:22:34;11.82;;;1.25;;
15968;SDS011;8085;53.472;9.794;2023-12-22T14:25:02;11.70;;;1.13;;
15968;SDS011;8085;53.472;9.794;2023-12-22T14:27:29;11.35;;;1.50;;
15968;SDS011;8085;53.472;9.794;2023-12-22T14:29:56;8.00;;;1.00;;
15968;SDS011;8085;53.472;9.794;2023-12-22T14:32:23;10.27;;;1.38;;
15968;SDS011;8085;53.472;9.794;2023-12-22T14:34:53;12.40;;;1.20;;
15968;SDS011;8085;53.472;9.794;2023-12-22T14:37:20;8.02;;;1.15;;
15968;SDS011;8085;53.472;9.794;2023-12-22T14:39:47;9.52;;;1.05;;
15968;SDS011;8085;53.472;9.794;2023-12-22T14:42:14;6.72;;;1.40;;
15968;SDS011;8085;53.472;9.794;2023-12-22T14:44:41;4.60;;;0.68;;
15968;SDS011;8085;53.472;9.794;2023-12-22T14:47:08;8.32;;;1.00;;
15968;SDS011;8085;53.472;9.794;2023-12-22T14:49:35;8.13;;;1.40;;
15968;SDS011;8085;53.472;9.794;2023-12-22T14:52:04;5.82;;;0.88;;
15968;SDS011;8085;53.472;9.794;2023-12-22T14:54:31;5.63;;;0.90;;
15968;SDS011;8085;53.472;9.794;2023-12-22T14:56:58;7.65;;;1.17;;
15968;SDS011;8085;53.472;9.794;2023-12-22T14:59:25;8.80;;;1.10;;
15968;SDS011;8085;53.472;9.794;2023-12-22T15:01:52;9.48;;;1.10;;
15968;SDS011;8085;53.472;9.794;2023-12-22T15:04:19;8.52;;;1.20;;
15968;SDS011;8085;53.472;9.794;2023-12-22T15:06:49;9.70;;;0.93;;
15968;SDS011;8085;53.472;9.794;2023-12-22T15:09:18;7.10;;;1.15;;
15968;SDS011;8085;53.472;9.794;2023-12-22T15:11:45;8.50;;;0.80;;